Details From LIMJ - Genova Sestri
To LSZS - Samedan
Flight Number -
Tags Routegen Generated
Created
Modified
Stats Distance 143 nm / 264 km
Max Altitude 15,000 ft / 4,572 m
Waypoints 10
Social Downloads 1
Likes 0
Share VATSIM

Download

Looking for another format? Having issues loading an existing format? Contact us
Advertisement - Login to hide

Notes

Departing runway 10 LIMJ. Arriving runway 2 LSZS. Advanced Generation Settings: Turn accuracy: 20 Altitude: 15000ft Smoothed angles: True Runway changes allowed: True Calculation order: Arrival --> Departure --> Intermediates Multipass intermediates: True

Route

LIMJ +44.39_+008.96 +44.39_+009.04 +44.42_+009.11 +44.46_+009.17 +44.51_+009.20 +44.57_+009.21 +45.30_+009.44 +46.46_+009.83 LSZS

ID Type Via Altitude Latitude Longitude Leg Dist Tot Dist Heading (true) Name
O LIMJ APT - 0 ft / 0 m 44.40848˚ 8.85958˚ - 0 nm - -
+44.39_+008.96 LATLON - 310 ft / 94 m 44.38926˚ 8.95723˚ 4 nm 4 nm 105° / 105° -
+44.39_+009.04 LATLON - 15,000 ft / 4,572 m 44.39390˚ 9.03798˚ 3 nm 7 nm 85° / 85° -
+44.42_+009.11 LATLON - 15,000 ft / 4,572 m 44.41800˚ 9.11166˚ 3 nm 11 nm 65° / 65° -
+44.46_+009.17 LATLON - 15,000 ft / 4,572 m 44.45866˚ 9.16939˚ 3 nm 14 nm 45° / 45° -
+44.51_+009.20 LATLON - 15,000 ft / 4,572 m 44.51096˚ 9.20417˚ 3 nm 18 nm 25° / 25° -
+44.57_+009.21 LATLON - 15,000 ft / 4,572 m 44.56860˚ 9.21177˚ 3 nm 21 nm 5° / 5° -
+45.30_+009.44 LATLON - 15,000 ft / 4,572 m 45.30127˚ 9.44492˚ 45 nm 66 nm 13° / 13° -
+46.46_+009.83 LATLON - 310 ft / 94 m 46.46353˚ 9.82735˚ 71 nm 138 nm 13° / 13° -
O LSZS APT - 0 ft / 0 m 46.52683˚ 9.87829˚ 4 nm 142 nm 29° / 29° Samedan

Altitude Profile

Advertisement - Login to hide

LIMJ

Details ICAO LIMJ (GOA)
Name Genova Sestri
Region Italy
Timezone Unknown (UTC+0.0)
Stats Elevation 13 ft / 4 m (AMSL)
Location 44.411957° 8.841866°
Runways 1
Magnetic Variation 2.388° E

METAR

LIMJ 162020Z 06008KT 030V090 CAVOK 06/01 Q1013

Decode

TAF

TAF LIMJ 161700Z 1618/1718 04012KT 9999 SCT025

Decode

Departure Runways

ID Width Length Bearing (true) Bearing (mag) Surface Threshold Offset Overrun Length
10 148 ft / 45 m 9,574 ft / 2,918 m 105.39° 103.00° Asphalt 0 ft / 0 m 0 ft / 0 m
28 148 ft / 45 m 9,574 ft / 2,918 m 285.41° 283.02° Asphalt 538 ft / 164 m 0 ft / 0 m

LSZS

Details ICAO LSZS (SMV)
Name Samedan
Region Switzerland
Timezone Europe/Zurich (UTC+1.0)
Stats Elevation 5,600 ft / 1,707 m (AMSL)
Location 46.534207° 9.883938°
Runways 1
Magnetic Variation 2.657° E

METAR

LSZS 162020Z AUTO VRB02KT 9999 -SN BKN/// M07/M08 Q1010

Decode

TAF

Not found

Destination Runways

ID Width Length Bearing (true) Bearing (mag) Surface Threshold Offset Overrun Length
03 131 ft / 40 m 6,059 ft / 1,847 m 29.10° 26.44° Asphalt 0 ft / 0 m 0 ft / 0 m
21 131 ft / 40 m 6,059 ft / 1,847 m 209.10° 206.44° Asphalt 361 ft / 110 m 0 ft / 0 m